Time,TemperatureF,DewpointF,PressureIn,WindDirection,WindDirectionDegrees,WindSpeedMPH,WindSpeedGustMPH,Humidity,HourlyPrecipIn,Conditions,Clouds,dailyrainin,SoftwareType,DateUTC
2013-05-02 00:10:00,35.0,20.0,-100.00,ESE,110,3.0,6.0,53,-99.99,,,-99.99,,2013-05-02 07:10:00,
2013-05-02 01:02:00,35.0,20.0,-100.00,ESE,110,3.0,6.0,53,-99.99,,,-99.99,,2013-05-02 08:02:00,
2013-05-02 01:10:00,36.0,22.0,-100.00,ENE,75,6.0,7.0,56,-99.99,,,-99.99,,2013-05-02 08:10:00,
2013-05-02 02:02:00,36.0,22.0,-100.00,ENE,75,6.0,7.0,56,-99.99,,,-99.99,,2013-05-02 09:02:00,
2013-05-02 02:10:00,36.0,24.0,-100.00,ENE,70,7.0,9.0,61,-99.99,,,-99.99,,2013-05-02 09:10:00,
2013-05-02 03:02:00,36.0,24.0,-100.00,ENE,70,7.0,9.0,61,-99.99,,,-99.99,,2013-05-02 10:02:00,
2013-05-02 04:10:00,36.0,27.0,-100.00,ENE,65,9.0,13.0,69,-99.99,,,-99.99,,2013-05-02 11:10:00,
2013-05-02 05:01:00,36.0,27.0,-100.00,ENE,65,9.0,13.0,69,-99.99,,,-99.99,,2013-05-02 12:01:00,
2013-05-02 06:01:00,37.0,27.0,-100.00,ENE,65,14.0,17.0,66,-99.99,,,-99.99,,2013-05-02 13:01:00,
2013-05-02 07:02:00,38.0,28.0,-100.00,ENE,60,12.0,15.0,66,-99.99,,,-99.99,,2013-05-02 14:02:00,
2013-05-02 08:02:00,40.0,28.0,-100.00,ENE,65,12.0,15.0,61,-99.99,,,-99.99,,2013-05-02 15:02:00,
2013-05-02 09:02:00,44.0,30.0,-100.00,ENE,60,14.0,17.0,57,-99.99,,,-99.99,,2013-05-02 16:02:00,
2013-05-02 10:02:00,48.0,31.0,-100.00,NNE,30,6.0,12.0,51,-99.99,,,-99.99,,2013-05-02 17:02:00,
2013-05-02 11:01:00,54.0,31.0,-100.00,ENE,70,6.0,10.0,41,-99.99,,,-99.99,,2013-05-02 18:01:00,
2013-05-02 12:01:00,57.0,31.0,-100.00,SE,125,8.0,13.0,37,-99.99,,,-99.99,,2013-05-02 19:01:00,
2013-05-02 13:02:00,61.0,29.0,-100.00,South,170,3.0,12.0,29,-99.99,,,-99.99,,2013-05-02 20:02:00,
2013-05-02 14:01:00,63.0,29.0,-100.00,SE,145,3.0,15.0,27,-99.99,,,-99.99,,2013-05-02 21:01:00,
2013-05-02 15:02:00,64.0,29.0,-100.00,South,185,9.0,15.0,26,-99.99,,,-99.99,,2013-05-02 22:02:00,
2013-05-02 15:10:00,67.0,30.0,-100.00,SW,220,10.0,14.0,24,-99.99,,,-99.99,,2013-05-02 22:10:00,
2013-05-02 16:02:00,67.0,30.0,-100.00,SW,220,10.0,14.0,24,-99.99,,,-99.99,,2013-05-02 23:02:00,
2013-05-02 16:10:00,67.0,29.0,-100.00,WSW,240,7.0,12.0,23,-99.99,,,-99.99,,2013-05-02 23:10:00,
2013-05-02 17:01:00,67.0,29.0,-100.00,WSW,240,7.0,12.0,23,-99.99,,,-99.99,,2013-05-03 00:01:00,
2013-05-02 18:01:00,65.0,29.0,-100.00,South,180,6.0,13.0,25,-99.99,,,-99.99,,2013-05-03 01:01:00,
2013-05-02 18:10:00,63.0,28.0,-100.00,SSW,195,6.0,10.0,26,-99.99,,,-99.99,,2013-05-03 01:10:00,
2013-05-02 19:01:00,63.0,28.0,-100.00,SSW,195,6.0,10.0,26,-99.99,,,-99.99,,2013-05-03 02:01:00,
2013-05-02 21:02:00,56.0,25.0,-100.00,SSW,195,5.0,6.0,29,-99.99,,,-99.99,,2013-05-03 04:02:00,
2013-05-02 21:10:00,55.0,27.0,-100.00,SSE,150,2.0,3.0,33,-99.99,,,-99.99,,2013-05-03 04:10:00,
2013-05-02 22:02:00,55.0,27.0,-100.00,SSE,150,2.0,3.0,33,-99.99,,,-99.99,,2013-05-03 05:02:00,
2013-05-02 23:10:00,52.0,29.0,-100.00,SE,140,2.0,2.0,40,-99.99,,,-99.99,,2013-05-03 06:10:00,